• Join FlightAware (Why Join?)
  • Login
  • US Flag 
01:00AM EDT


 

Airport Tracker/Info


-or-


 

Live Flight TrackerFlight Track Log ✈ UAL4422 ✈ 23-Apr-2013 ✈ KMAF - KIAH

Flight Track Log - Related Links

Times and Time Zones

All times are in EDT time to prevent confusion due to time zone crossing. See the UAL4422 flight status page for this flight to view local times or setup timezone preferences in your user account.

Time Position Orientation Groundspeed Altitude Reporting Facility
EDT Latitude Longitude Course Direction KTS MPH feet Rate Location/Type
06:06PM 31.8475 -101.9091 111° Southeast  Level FlightAware Approximate
06:07PM 31.8154 -101.8132 113° Southeast  Level FlightAware Approximate
06:07PM 31.8489 -101.9131 108° East 305 351 10,100  Level Fort Worth Center
06:08PM 31.7810 -101.7185 113° Southeast  Level FlightAware Approximate
06:08PM 31.8147 -101.8111 112° Southeast 311 358 11,000  Level Fort Worth Center
06:09PM 31.7475 -101.6235 106° East  Level FlightAware Approximate
06:09PM 31.7769 -101.6969 111° Southeast 344 396 11,800  Level Fort Worth Center
06:10PM 31.7229 -101.5247 106° East  Level FlightAware Approximate
06:10PM 31.7392 -101.5781 110° East 374 430 13,100  Level Fort Worth Center
06:11PM 31.6949 -101.4273 109° East  Level FlightAware Approximate
06:11PM 31.6994 -101.4567 111° Southeast 387 445 14,600  Level Fort Worth Center
06:12PM 31.6614 -101.3353 110° East 392 451 15,600 960 Climbing Fort Worth Center
06:13PM 31.6214 -101.2094 110° East 397 457 16,600 1,020 Climbing Fort Worth Center
06:14PM 31.5814 -101.0858 111° Southeast 402 463 17,700 1,020 Climbing Fort Worth Center
06:15PM 31.5392 -100.9550 111° Southeast 407 468 18,700 1,020 Climbing Fort Worth Center
06:16PM 31.4989 -100.8292 111° Southeast 414 476 19,800 1,140 Climbing Fort Worth Center
06:17PM 31.4544 -100.6958 111° Southeast 424 488 21,000 1,080 Climbing Fort Worth Center
06:18PM 31.4117 -100.5656 111° Southeast 424 488 22,000 1,080 Climbing Fort Worth Center
06:19PM 31.3692 -100.4325 110° East 429 494 23,200 1,260 Climbing Fort Worth Center
06:20PM 31.3222 -100.2989 112° Southeast 446 513 24,500 1,320 Climbing Houston Center
06:21PM 31.2775 -100.1667 112° Southeast 440 506 25,900 1,200 Climbing Houston Center
06:22PM 31.2322 -100.0342 112° Southeast 439 505 27,000 480 Climbing Houston Center
06:23PM 31.1750 -99.8700 112° Southeast 455 524 27,000  Level Houston Center
06:24PM 31.1264 -99.7253 111° Southeast 476 548 27,000  Level Houston Center
06:25PM 31.0750 -99.5775 112° Southeast 489 563 27,000  Level Houston Center
06:26PM 31.0233 -99.4292 112° Southeast 493 567 27,000  Level Houston Center
06:27PM 30.9703 -99.2794 112° Southeast 497 572 27,000  Level Houston Center
06:28PM 30.9136 -99.1183 112° Southeast 498 573 27,000  Level Houston Center
06:29PM 30.9225 -98.9578 86° East 507 583 27,000  Level Houston Center
06:30PM 31.0428 -98.8997 22° Northeast 484 557 27,000  Level Houston Center
06:31PM 31.1114 -99.0000 309° West 424 488 27,000  Level Houston Center
06:32PM 31.0150 -99.0889 218° Southwest 433 498 27,000  Level Houston Center
06:33PM 30.9097 -99.0067 146° Southeast 474 545 27,000  Level Houston Center
06:34PM 30.8383 -98.8689 121° Southeast 494 568 27,000  Level Houston Center
06:35PM 30.7981 -98.7172 107° East 498 573 27,000  Level Houston Center
06:36PM 30.8011 -98.5519 89° East 507 583 27,000  Level Houston Center
06:37PM 30.8039 -98.3869 89° East 506 582 27,000  Level Houston Center
06:38PM 30.8075 -98.2211 89° East 508 585 27,000  Level Houston Center
06:39PM 30.8108 -98.0275 89° East 509 586 27,000  Level Houston Center
06:40PM 30.8125 -97.8631 89° East 507 583 27,000  Level Houston Center
06:42PM 30.8156 -97.6964 89° East 511 588 27,000  Level Houston Center
06:43PM 30.8164 -97.5306 90° East 511 588 27,000  Level Houston Center
06:44PM 30.8181 -97.3647 89° East 513 590 27,000  Level Houston Center
06:45PM 30.8206 -97.1725 89° East 518 596 27,000  Level Houston Center
06:46PM 30.8228 -97.0072 89° East 515 593 27,000 -360 Level Houston Center
06:47PM 30.8122 -96.8444 94° East 500 575 26,300 -1,380 Descending Houston Center
06:48PM 30.7606 -96.6975 112° Southeast 486 559 24,200 -2,460 Descending Houston Center
06:49PM 30.7089 -96.5578 113° Southeast 471 542 21,300 -2,700 Descending Houston Center
06:50PM 30.6614 -96.4269 113° Southeast 435 501 18,700 -2,340 Descending Houston Center
06:51PM 30.6147 -96.2936 112° Southeast 385 443 16,500 -1,980 Descending Houston Center
06:51PM 30.6036 -96.2725 121° Southeast 362 417 16,200 -1,260 Descending Houston Center
06:51PM 30.5919 -96.2350 110° East 365 420 15,800 -1,560 Descending Houston Center
06:52PM 30.5733 -96.1839 113° Southeast 370 426 15,000 -1,800 Descending Houston Center
06:52PM 30.5489 -96.1211 114° Southeast 365 420 14,000 -1,740 Descending Houston Center
06:53PM 30.5331 -96.0747 112° Southeast 365 420 13,200 -1,920 Descending Houston Center
06:53PM 30.5103 -96.0139 113° Southeast 348 400 12,100 -1,680 Descending Houston Center
06:54PM 30.4978 -95.9847 116° Southeast 345 397 11,500 -1,680 Descending Houston Center
06:54PM 30.4747 -95.9186 112° Southeast 314 361 10,400 -1,500 Descending Houston Center
06:55PM 30.4564 -95.8747 116° Southeast 311 358 10,000 -420 Descending Houston Center
06:55PM 30.4283 -95.8417 135° Southeast 279 321 10,000  Level Houston Center
06:56PM 30.3961 -95.8322 166° South 270 311 10,000  Level Houston Center
06:57PM 30.3642 -95.8272 172° South 242 278 10,000 -300 Level Houston Center
06:57PM 30.3314 -95.8222 172° South 239 275 9,700 -900 Descending Houston Center
06:58PM 30.2939 -95.8161 172° South 237 273 9,100 -1,260 Descending Houston Center
06:58PM 30.2667 -95.8117 172° South 234 269 8,400 -1,200 Descending Houston Center
06:58PM 30.2344 -95.8086 175° South 229 264 8,000 -420 Descending Houston Center
06:59PM 30.2042 -95.8044 173° South 228 262 8,000  Level Houston Center
06:59PM 30.1725 -95.7989 171° South 225 259 8,000  Level Houston Center
07:00PM 30.1414 -95.7953 174° South 227 261 8,000  Level Houston Center
07:01PM 30.1117 -95.7986 186° South 200 230 8,000 -480 Level Houston Center
07:01PM 30.0744 -95.8011 183° South 201 231 7,500 -840 Descending Houston Center
07:02PM 30.0492 -95.8036 185° South 198 228 7,100 -1,020 Descending Houston Center
07:02PM 30.0217 -95.7903 157° South 211 243 6,500 -1,200 Descending Houston Center
07:03PM 30.0117 -95.7597 111° Southeast 228 262 5,900 -1,020 Descending Houston Center
07:03PM 29.9994 -95.7225 111° Southeast 222 255 5,500 -780 Descending Houston Center
07:04PM 29.9911 -95.6922 108° East 210 242 5,100 -720 Descending Houston Center
07:04PM 29.9925 -95.6633 87° East 193 222 4,800 -540 Descending Houston Center
07:05PM 29.9919 -95.6317 91° East 183 211 4,600 -720 Descending Houston Center
07:05PM 29.9922 -95.6019 89° East 189 217 4,100 -1,140 Descending Houston Center
07:06PM 29.9931 -95.5736 88° East 190 219 3,600 -1,080 Descending Houston Center
07:06PM 29.9933 -95.5281 90° East 192 221 3,000 -780 Descending Houston Center
07:07PM 29.9919 -95.5136 96° East 187 215 2,800 -720 Descending Houston Center